Time;durP1;ratioP1;P1;durP2;ratioP2;P2;SDS_P1;SDS_P2;PMS_P1;PMS_P2;Temp;Humidity;BMP_temperature;BMP_pressure;BME280_temperature;BME280_humidity;BME280_pressure;Samples;Min_cycle;Max_cycle;Signal;HPM_P1;HPM_P2
2023/03/24 00:01:00;;;;;;;5.90;3.20;;;10.70;99.90;;;;;;5033909;28;20472;-84
2023/03/24 00:03:28;;;;;;;10.55;3.30;;;10.60;99.90;;;;;;5015927;28;20030;-85
2023/03/24 00:06:01;;;;;;;7.28;3.85;;;10.60;99.90;;;;;;5016089;28;20079;-85
2023/03/24 00:08:34;;;;;;;4.80;3.28;;;10.60;99.90;;;;;;5016024;28;20488;-85
2023/03/24 00:11:08;;;;;;;5.90;3.47;;;10.70;99.90;;;;;;5047062;28;20104;-85
2023/03/24 00:13:38;;;;;;;5.93;3.22;;;10.70;99.90;;;;;;5016349;28;20120;-86
2023/03/24 00:16:09;;;;;;;7.32;3.85;;;10.80;99.90;;;;;;5018569;28;20112;-85
2023/03/24 00:18:35;;;;;;;;;;;10.70;99.90;;;;;;5017217;28;20030;-85
2023/03/24 00:21:02;;;;;;;6.60;3.63;;;10.80;99.90;;;;;;5035292;28;20434;-85
2023/03/24 00:23:33;;;;;;;11.88;3.80;;;10.80;99.90;;;;;;5035154;28;20064;-85
2023/03/24 00:26:05;;;;;;;5.57;3.30;;;10.70;99.90;;;;;;5018781;28;20039;-85
2023/03/24 00:28:32;;;;;;;5.93;3.40;;;10.80;99.90;;;;;;5018557;28;20037;-84
2023/03/24 00:31:04;;;;;;;4.43;3.10;;;10.70;99.90;;;;;;5019576;28;20051;-84
2023/03/24 00:33:31;;;;;;;7.78;3.60;;;10.80;99.90;;;;;;5038236;28;20086;-85
2023/03/24 00:36:10;;;;;;;5.43;3.40;;;10.80;99.90;;;;;;5035362;28;20029;-85
2023/03/24 00:38:37;;;;;;;6.50;3.80;;;10.80;99.90;;;;;;5035071;28;20029;-84
2023/03/24 00:41:05;;;;;;;4.75;3.05;;;10.90;99.90;;;;;;5035567;28;20036;-84
2023/03/24 00:43:31;;;;;;;6.75;3.33;;;10.80;99.90;;;;;;5023064;28;20177;-85
2023/03/24 00:46:00;;;;;;;4.60;3.25;;;10.80;99.90;;;;;;5038868;28;20025;-84
2023/03/24 00:48:27;;;;;;;8.23;3.45;;;10.80;99.90;;;;;;5019167;28;20037;-84
2023/03/24 00:50:54;;;;;;;4.20;3.13;;;10.80;99.90;;;;;;5022190;28;20112;-85
2023/03/24 00:53:27;;;;;;;5.55;2.88;;;10.70;99.90;;;;;;5017915;28;20033;-85
2023/03/24 00:55:54;;;;;;;5.07;3.53;;;10.60;99.90;;;;;;5022349;28;20368;-85
2023/03/24 00:58:20;;;;;;;6.47;3.72;;;10.50;99.90;;;;;;5021326;28;20033;-85
2023/03/24 01:00:48;;;;;;;6.03;3.58;;;10.30;99.90;;;;;;5038358;28;20040;-85
2023/03/24 01:03:16;;;;;;;6.25;3.90;;;10.30;99.90;;;;;;5039200;28;20029;-85
2023/03/24 01:05:46;;;;;;;4.78;3.13;;;10.30;99.90;;;;;;5039270;28;20070;-85
2023/03/24 01:08:14;;;;;;;6.70;3.70;;;10.30;99.90;;;;;;5022066;28;20035;-84
2023/03/24 01:10:49;;;;;;;6.82;3.60;;;10.30;99.90;;;;;;5022300;28;20040;-85
2023/03/24 01:13:25;;;;;;;7.70;3.95;;;10.20;99.90;;;;;;5022371;28;20032;-86
2023/03/24 01:15:52;;;;;;;5.68;3.60;;;10.20;99.90;;;;;;5021838;28;20111;-85
2023/03/24 01:18:19;;;;;;;6.75;4.28;;;10.10;99.90;;;;;;5021578;28;20035;-85
2023/03/24 01:20:54;;;;;;;7.25;4.40;;;10.00;99.90;;;;;;5021933;28;20060;-85
2023/03/24 01:23:23;;;;;;;8.13;4.70;;;10.00;99.90;;;;;;5022394;28;20037;-85
2023/03/24 01:25:49;;;;;;;8.57;4.60;;;9.90;99.90;;;;;;5022644;28;20132;-84
2023/03/24 01:28:23;;;;;;;6.88;4.47;;;9.90;99.90;;;;;;5038557;28;20063;-85
2023/03/24 01:30:53;;;;;;;7.32;4.20;;;9.90;99.90;;;;;;5021346;28;20025;-85
2023/03/24 01:33:20;;;;;;;8.70;5.45;;;10.00;99.90;;;;;;5037911;28;20056;-85
2023/03/24 01:35:46;;;;;;;10.02;5.38;;;10.10;99.90;;;;;;5021432;28;20025;-85
2023/03/24 01:38:13;;;;;;;10.30;6.10;;;10.20;99.90;;;;;;5020968;28;20115;-84
2023/03/24 01:40:42;;;;;;;36.17;18.08;;;10.20;99.90;;;;;;5055370;28;20608;-85
2023/03/24 01:43:26;;;;;;;16.85;9.20;;;10.20;99.90;;;;;;5039129;28;20028;-85
2023/03/24 01:46:00;;;;;;;7.57;4.78;;;10.20;99.90;;;;;;5022196;28;20075;-85
2023/03/24 01:48:54;;;;;;;8.48;5.75;;;10.20;99.90;;;;;;5042637;28;20562;-85
2023/03/24 01:51:30;;;;;;;6.28;4.35;;;10.00;99.90;;;;;;5038589;28;20033;-85
2023/03/24 01:54:04;;;;;;;9.73;4.75;;;10.00;99.90;;;;;;5037639;28;20240;-85
2023/03/24 01:56:34;;;;;;;6.88;4.70;;;9.90;99.90;;;;;;5037243;28;20554;-84
2023/03/24 01:59:09;;;;;;;;;;;9.90;99.90;;;;;;5040757;28;20021;-85
2023/03/24 02:02:08;;;;;;;9.88;7.00;;;9.90;99.90;;;;;;5026702;28;19913;-84
2023/03/24 02:04:53;;;;;;;11.73;5.32;;;9.90;99.90;;;;;;5022949;28;20032;-85
2023/03/24 02:07:51;;;;;;;7.95;5.07;;;9.90;99.90;;;;;;5018495;28;20564;-85
2023/03/24 02:10:20;;;;;;;8.55;4.95;;;10.00;99.90;;;;;;5015826;28;20029;-85
2023/03/24 02:12:45;;;;;;;9.75;4.82;;;10.10;99.90;;;;;;5020934;28;20111;-85
2023/03/24 02:15:15;;;;;;;7.85;4.45;;;10.10;99.90;;;;;;5020525;28;20627;-85
2023/03/24 02:18:17;;;;;;;15.65;4.95;;;10.20;99.90;;;;;;5020450;28;20112;-84
2023/03/24 02:20:46;;;;;;;;;;;10.20;99.90;;;;;;5037703;28;20051;-84
2023/03/24 02:23:42;;;;;;;7.82;4.88;;;10.20;99.90;;;;;;5055253;28;19909;-85
2023/03/24 02:26:25;;;;;;;9.05;4.68;;;10.30;99.90;;;;;;5037239;28;20395;-84
2023/03/24 02:29:04;;;;;;;9.93;4.85;;;10.30;99.90;;;;;;5037142;28;20118;-85
2023/03/24 02:31:56;;;;;;;7.75;3.78;;;10.30;99.90;;;;;;5017046;28;20506;-85
2023/03/24 02:34:48;;;;;;;9.35;4.63;;;10.30;99.90;;;;;;5036137;28;20440;-85
2023/03/24 02:37:33;;;;;;;7.53;4.28;;;10.30;99.90;;;;;;5053476;28;20025;-85
2023/03/24 02:40:15;;;;;;;6.72;4.10;;;10.30;99.90;;;;;;5021727;28;20716;-85
2023/03/24 02:43:01;;;;;;;11.07;4.53;;;10.30;99.90;;;;;;5034589;28;20033;-85
2023/03/24 02:45:34;;;;;;;5.95;4.20;;;10.30;99.90;;;;;;5020737;28;20027;-85
2023/03/24 02:48:35;;;;;;;5.85;4.40;;;10.30;99.90;;;;;;5020670;28;20029;-85
2023/03/24 02:51:11;;;;;;;7.72;4.50;;;10.30;99.90;;;;;;5036634;28;20040;-86
2023/03/24 02:54:08;;;;;;;5.63;3.95;;;10.30;99.90;;;;;;5020611;28;20083;-85
2023/03/24 02:57:24;;;;;;;6.10;3.60;;;10.40;99.90;;;;;;5016466;28;20033;-85
2023/03/24 03:00:33;;;;;;;5.75;4.30;;;10.40;99.90;;;;;;4973526;28;20490;-86
2023/03/24 03:03:16;;;;;;;4.80;3.63;;;10.30;99.90;;;;;;5037822;28;20128;-85
2023/03/24 03:06:12;;;;;;;6.05;3.97;;;10.30;99.90;;;;;;5017066;28;20044;-85
2023/03/24 03:08:40;;;;;;;10.10;3.97;;;10.30;99.90;;;;;;5016397;28;20064;-85
2023/03/24 03:11:11;;;;;;;5.32;4.05;;;10.30;99.90;;;;;;5011854;28;20039;-86
2023/03/24 03:13:42;;;;;;;11.50;4.32;;;10.30;99.90;;;;;;5016673;28;20168;-85
2023/03/24 03:16:15;;;;;;;6.68;3.78;;;10.30;99.90;;;;;;5019850;28;20037;-85
2023/03/24 03:19:16;;;;;;;9.38;3.92;;;10.40;99.90;;;;;;5016400;28;20063;-85
2023/03/24 03:21:47;;;;;;;9.07;4.00;;;10.50;99.90;;;;;;5032904;28;20021;-85
2023/03/24 03:24:36;;;;;;;5.28;3.60;;;10.50;99.90;;;;;;5020169;28;20049;-85
2023/03/24 03:27:21;;;;;;;6.53;3.70;;;10.40;99.90;;;;;;5019533;28;20025;-85
2023/03/24 03:29:53;;;;;;;5.07;3.60;;;10.40;99.90;;;;;;5033904;28;20021;-85
2023/03/24 03:32:30;;;;;;;6.60;4.13;;;10.40;99.90;;;;;;5035877;28;20028;-85
2023/03/24 03:35:15;;;;;;;5.82;3.70;;;10.40;99.90;;;;;;5018156;28;20101;-85
2023/03/24 03:38:13;;;;;;;7.93;4.18;;;10.40;99.90;;;;;;5035430;28;20029;-85
2023/03/24 03:40:51;;;;;;;7.32;4.13;;;10.40;99.90;;;;;;5018977;28;20055;-85
2023/03/24 03:43:21;;;;;;;6.07;3.95;;;10.40;99.90;;;;;;5036305;28;20051;-85
2023/03/24 03:45:47;;;;;;;8.15;4.00;;;10.50;99.90;;;;;;5019369;28;20036;-85
2023/03/24 03:48:16;;;;;;;6.40;3.65;;;10.50;99.90;;;;;;5036088;28;20017;-85
2023/03/24 03:50:42;;;;;;;6.90;3.70;;;10.40;99.90;;;;;;5019363;28;20033;-85
2023/03/24 03:53:08;;;;;;;12.65;5.10;;;10.40;99.90;;;;;;5024711;28;20037;-85
2023/03/24 03:55:35;;;;;;;6.47;4.20;;;10.50;99.90;;;;;;5019784;28;20139;-85
2023/03/24 03:58:03;;;;;;;6.03;3.78;;;10.50;99.90;;;;;;5018655;28;20059;-85
2023/03/24 04:00:45;;;;;;;6.88;3.80;;;10.50;99.90;;;;;;5036130;28;20025;-85
2023/03/24 04:03:52;;;;;;;5.45;3.65;;;10.50;99.90;;;;;;4990652;28;20402;-85
2023/03/24 04:06:34;;;;;;;5.80;3.83;;;10.50;99.90;;;;;;5035765;28;20029;-85
2023/03/24 04:09:28;;;;;;;6.75;4.47;;;10.50;99.90;;;;;;5019568;28;20045;-85
2023/03/24 04:12:18;;;;;;;8.90;4.18;;;10.60;99.90;;;;;;5034368;28;20024;-85
2023/03/24 04:15:46;;;;;;;6.88;3.95;;;10.50;99.90;;;;;;5030200;28;20033;-85
2023/03/24 04:18:49;;;;;;;9.23;4.20;;;10.40;99.90;;;;;;5031867;28;20027;-86
2023/03/24 04:21:22;;;;;;;7.18;3.97;;;10.40;99.90;;;;;;5019558;28;20052;-85
2023/03/24 04:23:56;;;;;;;7.35;4.30;;;10.40;99.90;;;;;;5017076;28;20571;-85
2023/03/24 04:26:53;;;;;;;12.20;4.22;;;10.50;99.90;;;;;;5035621;28;20033;-85
2023/03/24 04:29:32;;;;;;;5.63;4.47;;;10.80;99.90;;;;;;5035758;28;20115;-85
2023/03/24 04:32:10;;;;;;;9.07;4.25;;;10.90;99.90;;;;;;5017964;28;20195;-85
2023/03/24 04:35:01;;;;;;;9.77;5.10;;;11.10;99.90;;;;;;5032564;28;20119;-85
2023/03/24 04:37:47;;;;;;;7.22;4.75;;;11.30;99.90;;;;;;5018833;28;20025;-86
2023/03/24 04:40:21;;;;;;;9.05;4.40;;;11.30;99.90;;;;;;5020106;28;20770;-86
2023/03/24 04:42:56;;;;;;;11.95;5.82;;;11.40;99.90;;;;;;5019208;28;20021;-85
2023/03/24 04:45:36;;;;;;;13.60;5.65;;;11.30;99.90;;;;;;5020432;28;20136;-85
2023/03/24 04:48:18;;;;;;;14.18;6.90;;;11.10;99.90;;;;;;5021337;28;20068;-85
2023/03/24 04:51:15;;;;;;;15.35;8.85;;;10.80;99.90;;;;;;5023238;28;20021;-84
2023/03/24 04:54:01;;;;;;;15.10;9.07;;;10.40;99.90;;;;;;5036488;28;20040;-84
2023/03/24 04:56:36;;;;;;;15.60;8.70;;;10.20;99.90;;;;;;5017430;28;20040;-85
2023/03/24 04:59:08;;;;;;;15.30;9.57;;;10.00;99.90;;;;;;5034774;28;20480;-85
2023/03/24 05:01:36;;;;;;;15.35;10.50;;;9.90;99.90;;;;;;5035057;28;20052;-85
2023/03/24 05:04:24;;;;;;;22.85;10.93;;;9.90;99.90;;;;;;5053268;28;20827;-85
2023/03/24 05:06:51;;;;;;;16.58;10.73;;;9.80;99.90;;;;;;5035726;28;20014;-85
2023/03/24 05:09:24;;;;;;;23.48;10.88;;;9.70;99.90;;;;;;5035321;28;20029;-85
2023/03/24 05:11:56;;;;;;;15.05;10.30;;;9.70;99.90;;;;;;5032185;28;20464;-85
2023/03/24 05:14:23;;;;;;;19.88;10.70;;;9.70;99.90;;;;;;5035699;28;20025;-84
2023/03/24 05:16:58;;;;;;;19.40;11.60;;;9.70;99.90;;;;;;5018623;28;20033;-86
2023/03/24 05:19:52;;;;;;;21.40;12.02;;;9.60;99.90;;;;;;5018655;28;20027;-85
2023/03/24 05:22:19;;;;;;;20.40;12.68;;;9.60;99.90;;;;;;5045232;28;20029;-86
2023/03/24 05:24:44;;;;;;;22.02;13.00;;;9.60;99.90;;;;;;5053981;28;20032;-87
2023/03/24 05:27:10;;;;;;;22.70;11.77;;;9.60;99.90;;;;;;5020342;28;20491;-86
2023/03/24 05:29:36;;;;;;;22.15;12.63;;;9.50;99.90;;;;;;5039720;28;20033;-87
2023/03/24 05:32:02;;;;;;;24.88;13.50;;;9.60;99.90;;;;;;5021974;28;20029;-86
2023/03/24 05:34:29;;;;;;;18.48;12.40;;;9.50;99.90;;;;;;5039738;28;20395;-87
2023/03/24 05:37:16;;;;;;;23.90;14.27;;;9.50;99.90;;;;;;5042392;28;20021;-86
2023/03/24 05:39:45;;;;;;;28.33;14.15;;;9.50;99.90;;;;;;5040126;28;20914;-87
2023/03/24 05:42:30;;;;;;;24.88;14.43;;;9.50;99.90;;;;;;5043084;28;20108;-86
2023/03/24 05:44:58;;;;;;;22.33;14.15;;;9.50;99.90;;;;;;5023757;28;20739;-87
2023/03/24 05:47:26;;;;;;;28.20;15.07;;;9.50;99.90;;;;;;5039684;28;20437;-87
2023/03/24 05:49:52;;;;;;;31.85;16.67;;;9.50;99.90;;;;;;5020116;28;20120;-87
2023/03/24 05:52:19;;;;;;;26.42;14.95;;;9.50;99.90;;;;;;5023257;28;20897;-87
2023/03/24 05:54:50;;;;;;;26.85;14.35;;;9.50;99.90;;;;;;5024150;28;20037;-87
2023/03/24 05:57:20;;;;;;;24.35;14.40;;;9.50;99.90;;;;;;5024106;28;20429;-88
2023/03/24 06:00:09;;;;;;;24.33;15.20;;;9.50;99.90;;;;;;5041879;28;20443;-88
2023/03/24 06:02:44;;;;;;;26.98;15.20;;;9.50;99.90;;;;;;5025615;28;20051;-87
2023/03/24 06:05:46;;;;;;;28.77;15.38;;;9.50;99.90;;;;;;5032407;28;20036;-87
2023/03/24 06:08:20;;;;;;;25.80;15.75;;;9.50;99.90;;;;;;5040493;28;20392;-88
2023/03/24 06:10:47;;;;;;;32.35;17.50;;;9.60;99.90;;;;;;5041000;28;20029;-88
2023/03/24 06:13:13;;;;;;;30.85;18.05;;;9.60;99.90;;;;;;5040612;28;20028;-87
2023/03/24 06:15:48;;;;;;;31.02;16.77;;;9.60;99.90;;;;;;5024082;28;20633;-87
2023/03/24 06:18:39;;;;;;;34.33;17.85;;;9.60;99.90;;;;;;5045237;28;20116;-87
2023/03/24 06:21:12;;;;;;;32.60;18.40;;;9.60;99.90;;;;;;5025136;28;20028;-87
2023/03/24 06:23:42;;;;;;;34.20;19.23;;;9.70;99.90;;;;;;5024370;28;20025;-87
2023/03/24 06:26:11;;;;;;;31.67;18.90;;;9.70;99.90;;;;;;5034155;28;20124;-88
2023/03/24 06:28:57;;;;;;;37.45;20.75;;;9.70;99.90;;;;;;5044323;28;20029;-88
2023/03/24 06:31:28;;;;;;;41.30;21.95;;;9.80;99.90;;;;;;5037180;28;20032;-88
2023/03/24 06:33:54;;;;;;;38.78;21.75;;;9.80;99.90;;;;;;5022929;28;20025;-89
2023/03/24 06:36:22;;;;;;;44.92;26.77;;;9.80;99.90;;;;;;5021610;28;20033;-87
2023/03/24 06:39:16;;;;;;;43.53;27.35;;;9.80;99.90;;;;;;5039088;28;20025;-87
2023/03/24 06:41:42;;;;;;;46.00;29.90;;;9.80;99.90;;;;;;5034622;28;20058;-88
2023/03/24 06:44:08;;;;;;;45.80;28.98;;;9.90;99.90;;;;;;5022917;28;20367;-88
2023/03/24 06:46:34;;;;;;;55.40;31.50;;;9.90;99.90;;;;;;5038476;28;20009;-88
2023/03/24 06:49:00;;;;;;;51.00;32.45;;;9.90;99.90;;;;;;5022253;28;20067;-87
2023/03/24 06:51:26;;;;;;;52.95;33.33;;;9.90;99.90;;;;;;5021254;28;20048;-87
2023/03/24 06:53:52;;;;;;;52.28;33.30;;;9.80;99.90;;;;;;5021972;28;20427;-86
2023/03/24 06:56:21;;;;;;;59.17;35.53;;;9.80;99.90;;;;;;5038434;28;20033;-88
2023/03/24 06:58:52;;;;;;;53.05;32.58;;;9.80;99.90;;;;;;5038304;28;20017;-88
2023/03/24 07:01:28;;;;;;;52.83;31.05;;;9.80;99.90;;;;;;5023672;28;20494;-88
2023/03/24 07:04:02;;;;;;;40.22;28.10;;;9.90;99.90;;;;;;5022814;28;20102;-87
2023/03/24 07:06:49;;;;;;;45.35;29.13;;;9.90;99.90;;;;;;5019658;28;20032;-87
2023/03/24 07:09:17;;;;;;;41.95;26.55;;;9.90;99.90;;;;;;5021350;28;20025;-87
2023/03/24 07:11:43;;;;;;;41.70;25.98;;;10.00;99.90;;;;;;5020995;28;20032;-87
2023/03/24 07:14:09;;;;;;;39.70;24.25;;;9.90;99.90;;;;;;5021275;28;20020;-87
2023/03/24 07:16:35;;;;;;;43.25;24.23;;;9.90;99.90;;;;;;5021043;28;20029;-87
2023/03/24 07:19:22;;;;;;;42.60;25.20;;;10.00;99.90;;;;;;5016475;28;20024;-87
2023/03/24 07:21:55;;;;;;;40.60;24.58;;;10.00;99.90;;;;;;5042964;28;20031;-88
2023/03/24 07:24:34;;;;;;;42.65;27.17;;;10.00;99.90;;;;;;5037671;28;20028;-87
2023/03/24 07:27:15;;;;;;;45.42;28.52;;;10.10;99.90;;;;;;5023198;28;20021;-87
2023/03/24 07:29:44;;;;;;;49.17;29.38;;;10.10;99.90;;;;;;5036997;28;20521;-87
2023/03/24 07:32:17;;;;;;;42.20;29.42;;;10.00;99.90;;;;;;5022077;28;20387;-85
2023/03/24 07:34:45;;;;;;;46.72;28.58;;;10.00;99.90;;;;;;5037863;28;20028;-86
2023/03/24 07:37:10;;;;;;;37.25;24.75;;;10.10;99.90;;;;;;5020775;28;20026;-86
2023/03/24 07:39:36;;;;;;;37.25;24.60;;;10.10;99.90;;;;;;5055530;28;20488;-86
2023/03/24 07:42:04;;;;;;;34.70;23.15;;;10.10;99.90;;;;;;5019951;28;20589;-86
2023/03/24 07:44:46;;;;;;;;;;;10.10;99.90;;;;;;5039987;28;20388;-86
2023/03/24 07:47:12;;;;;;;34.13;20.50;;;10.10;99.90;;;;;;5050258;28;19909;-85
2023/03/24 07:49:37;;;;;;;37.20;21.67;;;10.10;99.90;;;;;;5030646;28;20037;-86
2023/03/24 07:52:06;;;;;;;32.30;18.77;;;10.10;99.90;;;;;;5023854;28;20021;-86
2023/03/24 07:54:35;;;;;;;33.63;20.95;;;10.10;99.90;;;;;;5020481;28;20033;-86
2023/03/24 07:57:01;;;;;;;38.95;20.23;;;10.10;99.90;;;;;;5020869;28;20095;-87
2023/03/24 07:59:27;;;;;;;31.38;19.45;;;10.10;99.90;;;;;;5037137;28;20559;-88
2023/03/24 08:02:26;;;;;;;35.00;22.88;;;10.20;99.90;;;;;;5019532;28;20424;-87
2023/03/24 08:05:43;;;;;;;42.25;25.40;;;10.20;99.90;;;;;;4983441;28;20034;-86
2023/03/24 08:08:30;;;;;;;37.58;22.95;;;10.10;99.90;;;;;;4962995;28;20101;-87
2023/03/24 08:10:56;;;;;;;32.58;22.02;;;10.10;99.90;;;;;;5013048;28;20040;-87
2023/03/24 08:13:22;;;;;;;30.50;22.23;;;10.20;99.90;;;;;;5036792;28;20064;-87
2023/03/24 08:15:52;;;;;;;38.03;22.05;;;10.10;99.90;;;;;;5036667;28;20044;-87
2023/03/24 08:18:20;;;;;;;31.45;22.35;;;10.10;99.90;;;;;;5036141;28;20491;-87
2023/03/24 08:20:47;;;;;;;32.47;19.23;;;10.10;99.90;;;;;;5038358;28;20451;-87
2023/03/24 08:23:13;;;;;;;35.22;21.15;;;10.10;99.90;;;;;;5041299;28;20025;-87
2023/03/24 08:25:39;;;;;;;38.58;18.38;;;10.10;99.90;;;;;;5020753;28;20175;-86
2023/03/24 08:28:05;;;;;;;28.38;18.50;;;10.10;99.90;;;;;;5036921;28;20037;-84
2023/03/24 08:30:31;;;;;;;24.33;17.60;;;10.10;99.90;;;;;;5020543;28;20032;-86
2023/03/24 08:33:00;;;;;;;28.27;17.75;;;10.00;99.90;;;;;;5037074;28;20036;-86
2023/03/24 08:35:31;;;;;;;26.15;15.23;;;10.10;99.90;;;;;;5040131;28;20029;-85
2023/03/24 08:37:58;;;;;;;24.20;15.48;;;10.00;99.90;;;;;;5021266;28;20021;-86
2023/03/24 08:40:26;;;;;;;25.80;14.88;;;10.00;99.90;;;;;;5037439;28;20025;-87
2023/03/24 08:42:55;;;;;;;22.23;12.80;;;10.10;99.90;;;;;;5038032;28;20024;-86
2023/03/24 08:45:22;;;;;;;21.25;13.88;;;10.10;99.90;;;;;;5020525;28;20479;-87
2023/03/24 08:47:50;;;;;;;25.17;14.30;;;10.20;99.90;;;;;;5018505;28;20021;-86
2023/03/24 08:50:18;;;;;;;18.45;12.52;;;10.10;99.90;;;;;;5020339;28;20066;-87
2023/03/24 08:52:47;;;;;;;18.48;12.48;;;10.10;99.90;;;;;;5037495;28;20033;-86
2023/03/24 08:55:14;;;;;;;18.95;11.50;;;10.00;99.90;;;;;;5021814;28;20044;-87
2023/03/24 08:57:40;;;;;;;23.92;14.52;;;10.00;99.90;;;;;;5036933;28;20037;-86
2023/03/24 09:00:24;;;;;;;36.58;18.30;;;10.00;99.90;;;;;;5019429;28;20032;-86
2023/03/24 09:02:54;;;;;;;25.75;15.10;;;10.10;99.90;;;;;;5038648;28;20029;-86
2023/03/24 09:05:24;;;;;;;17.77;12.05;;;10.10;99.90;;;;;;5041975;28;20104;-85
2023/03/24 09:07:50;;;;;;;26.65;14.55;;;10.10;99.90;;;;;;5061454;28;20108;-86
2023/03/24 09:10:16;;;;;;;19.42;12.30;;;10.20;99.90;;;;;;5024122;28;20025;-86
2023/03/24 09:12:43;;;;;;;19.05;10.70;;;10.10;99.90;;;;;;5040319;28;20116;-86
2023/03/24 09:15:11;;;;;;;18.17;11.02;;;10.10;99.90;;;;;;5024176;28;20052;-86
2023/03/24 09:17:36;;;;;;;17.08;11.02;;;10.10;99.90;;;;;;5039938;28;20029;-86
2023/03/24 09:20:07;;;;;;;16.05;10.43;;;10.20;99.90;;;;;;5023643;28;20021;-85
2023/03/24 09:22:35;;;;;;;15.50;10.35;;;10.30;99.90;;;;;;5023413;28;20025;-86
2023/03/24 09:25:01;;;;;;;18.40;10.93;;;10.20;99.90;;;;;;5023584;28;20476;-86
2023/03/24 09:27:27;;;;;;;18.20;10.63;;;10.30;99.90;;;;;;5040424;28;20033;-85
2023/03/24 09:29:52;;;;;;;15.20;9.77;;;10.30;99.90;;;;;;5020789;28;20029;-85
2023/03/24 09:32:19;;;;;;;14.32;10.45;;;10.30;99.90;;;;;;5056878;28;20032;-86
2023/03/24 09:34:44;;;;;;;17.48;10.05;;;10.40;99.90;;;;;;5023423;28;20029;-86
2023/03/24 09:37:10;;;;;;;12.18;9.63;;;10.30;99.90;;;;;;5039682;28;20550;-86
2023/03/24 09:39:36;;;;;;;12.60;8.90;;;10.40;99.90;;;;;;5039934;28;20021;-86
2023/03/24 09:42:07;;;;;;;14.18;9.98;;;10.40;99.90;;;;;;5038519;28;20468;-86
2023/03/24 09:44:39;;;;;;;13.35;9.65;;;10.40;99.90;;;;;;5022147;28;20032;-86
2023/03/24 09:47:25;;;;;;;14.18;9.18;;;10.50;99.90;;;;;;5038989;28;20071;-86
2023/03/24 09:50:32;;;;;;;11.07;8.05;;;10.60;99.90;;;;;;5039203;28;20032;-86
2023/03/24 09:53:16;;;;;;;12.98;8.63;;;10.70;99.90;;;;;;5035919;28;20032;-86
2023/03/24 09:55:44;;;;;;;12.82;8.50;;;10.60;99.90;;;;;;5050790;28;20066;-85
2023/03/24 09:58:11;;;;;;;10.90;8.23;;;10.60;99.90;;;;;;5022701;28;20060;-86
2023/03/24 10:00:37;;;;;;;9.98;7.40;;;10.40;99.90;;;;;;5019377;28;20116;-86
2023/03/24 10:03:23;;;;;;;15.10;10.27;;;10.30;99.90;;;;;;5022936;28;20118;-87
2023/03/24 10:05:59;;;;;;;14.32;10.07;;;10.20;99.90;;;;;;5023953;28;20040;-86
2023/03/24 10:08:41;;;;;;;17.45;11.18;;;10.20;99.90;;;;;;5023518;28;20029;-87
2023/03/24 10:11:17;;;;;;;41.63;22.70;;;10.30;99.90;;;;;;5023895;28;20067;-88
2023/03/24 10:14:04;;;;;;;42.33;25.30;;;10.30;99.90;;;;;;5039125;28;20406;-87
2023/03/24 10:16:35;;;;;;;16.45;11.02;;;10.30;99.90;;;;;;5023399;28;20060;-87
2023/03/24 10:19:10;;;;;;;15.73;10.30;;;10.30;99.90;;;;;;5022792;28;20032;-87
2023/03/24 10:21:40;;;;;;;18.40;11.20;;;10.30;99.90;;;;;;5032761;28;20024;-87
2023/03/24 10:24:23;;;;;;;13.85;9.88;;;10.30;99.90;;;;;;5022652;28;20027;-86
2023/03/24 10:27:43;;;;;;;16.27;10.27;;;10.30;99.90;;;;;;5038815;28;20167;-86
2023/03/24 10:30:38;;;;;;;12.68;9.93;;;10.30;99.90;;;;;;4942238;28;20035;-88
2023/03/24 10:33:04;;;;;;;12.90;7.95;;;10.30;99.90;;;;;;4969918;28;20022;-87
2023/03/24 10:35:37;;;;;;;11.73;8.98;;;10.30;99.90;;;;;;4996605;28;20119;-88
2023/03/24 10:38:19;;;;;;;14.20;9.63;;;10.30;99.90;;;;;;5022481;28;20030;-88
2023/03/24 10:40:46;;;;;;;15.65;11.52;;;10.30;99.90;;;;;;5021339;28;20472;-88
2023/03/24 10:43:14;;;;;;;19.95;14.50;;;10.30;99.90;;;;;;5023572;28;20472;-89
2023/03/24 10:45:43;;;;;;;19.27;14.68;;;10.30;99.90;;;;;;5025695;28;20025;-88
2023/03/24 10:48:12;;;;;;;17.45;13.30;;;10.30;99.90;;;;;;5031467;28;20036;-89
2023/03/24 10:50:43;;;;;;;13.05;11.07;;;10.30;99.90;;;;;;5027006;28;20031;-88
2023/03/24 10:53:19;;;;;;;11.85;9.40;;;10.40;99.90;;;;;;5040612;28;20032;-88
2023/03/24 10:55:46;;;;;;;11.80;8.65;;;10.40;99.90;;;;;;5023913;28;20033;-88
2023/03/24 10:58:40;;;;;;;12.57;10.07;;;10.40;99.90;;;;;;5043504;28;20464;-88
2023/03/24 11:01:17;;;;;;;18.33;14.40;;;10.30;99.90;;;;;;5038991;28;20028;-88
2023/03/24 11:03:44;;;;;;;18.63;15.00;;;10.30;99.90;;;;;;5039258;28;20083;-89
2023/03/24 11:06:17;;;;;;;20.67;16.83;;;10.30;99.90;;;;;;5039977;28;20395;-88
2023/03/24 11:08:43;;;;;;;20.33;17.17;;;10.40;99.90;;;;;;5025957;28;20104;-88
2023/03/24 11:11:29;;;;;;;26.27;17.55;;;10.40;99.90;;;;;;5044396;28;20025;-87
2023/03/24 11:14:02;;;;;;;20.80;16.20;;;10.40;99.90;;;;;;5037914;28;20155;-89
2023/03/24 11:16:36;;;;;;;19.60;14.18;;;10.30;99.90;;;;;;5039335;28;20063;-88
2023/03/24 11:19:16;;;;;;;17.27;11.73;;;10.30;99.90;;;;;;5024098;28;20044;-89
2023/03/24 11:21:42;;;;;;;18.77;12.60;;;10.30;99.90;;;;;;5025538;28;20025;-89
2023/03/24 11:24:16;;;;;;;16.85;12.48;;;10.20;99.90;;;;;;5025477;28;20082;-88
2023/03/24 11:26:57;;;;;;;17.63;12.40;;;10.20;99.90;;;;;;5020093;28;20033;-89
2023/03/24 11:29:26;;;;;;;21.58;13.15;;;10.40;99.90;;;;;;5024446;28;20024;-89
2023/03/24 11:31:56;;;;;;;16.60;11.15;;;10.60;99.90;;;;;;5039973;28;20096;-90
2023/03/24 11:34:37;;;;;;;16.95;10.70;;;10.60;99.90;;;;;;5022553;28;20036;-88
2023/03/24 11:37:19;;;;;;;13.75;9.60;;;10.60;99.90;;;;;;5022917;28;20021;-90
2023/03/24 11:40:24;;;;;;;15.25;8.20;;;10.60;99.90;;;;;;5016332;28;20036;-89
2023/03/24 11:43:02;;;;;;;11.98;7.90;;;10.70;99.90;;;;;;5032777;28;20029;-89
2023/03/24 11:45:39;;;;;;;11.50;8.52;;;10.70;99.90;;;;;;5022155;28;20095;-88
2023/03/24 11:48:20;;;;;;;12.85;8.27;;;10.60;99.90;;;;;;5019654;28;20033;-89
2023/03/24 11:50:47;;;;;;;12.27;8.60;;;10.70;99.90;;;;;;5053747;28;20480;-88
2023/03/24 11:53:22;;;;;;;10.82;7.32;;;10.80;99.90;;;;;;5021379;28;20025;-89
2023/03/24 11:55:48;;;;;;;13.38;8.18;;;10.80;99.90;;;;;;5016659;28;20108;-88
2023/03/24 11:58:35;;;;;;;13.23;6.72;;;10.60;99.90;;;;;;5022745;28;20049;-88
2023/03/24 12:01:06;;;;;;;9.18;4.45;;;10.50;99.90;;;;;;5038189;28;20056;-88
2023/03/24 12:03:45;;;;;;;9.25;4.93;;;10.30;99.90;;;;;;5020602;28;20099;-88
2023/03/24 12:06:27;;;;;;;7.60;4.40;;;10.20;99.90;;;;;;5037649;28;20029;-89
2023/03/24 12:09:24;;;;;;;7.43;5.28;;;10.10;99.90;;;;;;5037504;28;20029;-88
2023/03/24 12:12:08;;;;;;;4.75;3.65;;;10.20;99.90;;;;;;5015212;28;20647;-89
2023/03/24 12:14:55;;;;;;;9.20;4.85;;;10.20;99.90;;;;;;5021428;28;20040;-88
2023/03/24 12:17:41;;;;;;;6.70;4.15;;;10.20;99.90;;;;;;5020571;28;20746;-89
2023/03/24 12:20:29;;;;;;;7.13;5.05;;;10.10;99.90;;;;;;5033169;28;20029;-87
2023/03/24 12:23:45;;;;;;;11.98;6.45;;;10.10;99.90;;;;;;5021208;28;20017;-89
2023/03/24 12:26:26;;;;;;;9.48;5.32;;;10.10;99.90;;;;;;5010102;28;20124;-87
2023/03/24 12:28:57;;;;;;;10.10;4.90;;;10.10;99.90;;;;;;5037289;28;20024;-88
2023/03/24 12:31:41;;;;;;;6.75;5.13;;;10.30;99.90;;;;;;5021323;28;20033;-87
2023/03/24 12:34:22;;;;;;;7.80;4.82;;;10.40;99.90;;;;;;5020851;28;20027;-88
2023/03/24 12:36:54;;;;;;;6.82;4.50;;;10.50;99.90;;;;;;5028700;28;20124;-88
2023/03/24 12:39:31;;;;;;;8.00;5.00;;;10.50;99.90;;;;;;5032729;28;20444;-88
2023/03/24 12:42:03;;;;;;;21.17;12.15;;;10.50;99.90;;;;;;5025161;28;20021;-88
2023/03/24 12:45:03;;;;;;;10.75;6.72;;;10.30;99.90;;;;;;5021601;28;21188;-88
2023/03/24 12:47:58;;;;;;;10.68;5.40;;;10.20;99.90;;;;;;5045152;28;20064;-88
2023/03/24 12:50:29;;;;;;;3.92;3.10;;;10.10;99.90;;;;;;5023116;28;20033;-88
2023/03/24 12:53:24;;;;;;;15.30;5.88;;;10.10;99.90;;;;;;5041134;28;20044;-88
2023/03/24 12:56:16;;;;;;;4.88;3.13;;;10.30;99.90;;;;;;5041422;28;20025;-87
2023/03/24 12:58:57;;;;;;;7.25;4.03;;;10.40;99.90;;;;;;5051652;28;20055;-88
2023/03/24 13:01:35;;;;;;;10.20;4.68;;;10.60;99.90;;;;;;5023235;28;20029;-88
2023/03/24 13:04:28;;;;;;;8.00;4.43;;;10.90;99.90;;;;;;5024133;28;20060;-88
2023/03/24 13:06:59;;;;;;;9.80;5.78;;;11.10;99.90;;;;;;5017745;28;20029;-88
2023/03/24 13:09:30;;;;;;;5.75;3.38;;;11.50;99.90;;;;;;5038466;28;20029;-87
2023/03/24 13:11:59;;;;;;;;;;;11.90;99.90;;;;;;5041763;28;20048;-86
2023/03/24 13:14:37;;;;;;;7.50;3.35;;;12.20;99.90;;;;;;5041558;28;19909;-87
2023/03/24 13:17:12;;;;;;;5.32;4.00;;;12.30;99.90;;;;;;5036965;28;20013;-87
2023/03/24 13:19:58;;;;;;;3.63;2.55;;;12.30;99.90;;;;;;5034984;28;20032;-87
2023/03/24 13:22:25;;;;;;;4.97;2.65;;;12.30;99.90;;;;;;5025107;28;20024;-87
2023/03/24 13:24:52;;;;;;;4.53;2.50;;;12.20;99.90;;;;;;5024298;28;20029;-87